sensor_id;sensor_type;location;lat;lon;timestamp;pressure;altitude;pressure_sealevel;temperature;humidity
9460;BME280;4768;42.664;23.240;2022-12-07T00:01:21;-9512.78;;;3.61;100.00
9460;BME280;4768;42.664;23.240;2022-12-07T00:03:51;-9512.22;;;3.59;100.00
9460;BME280;4768;42.664;23.240;2022-12-07T00:06:19;-9512.22;;;3.59;100.00
9460;BME280;4768;42.664;23.240;2022-12-07T00:08:47;-9513.22;;;3.63;100.00
9460;BME280;4768;42.664;23.240;2022-12-07T00:11:16;-9513.06;;;3.62;100.00
9460;BME280;4768;42.664;23.240;2022-12-07T00:13:43;-9513.34;;;3.63;100.00
9460;BME280;4768;42.664;23.240;2022-12-07T00:16:12;-9512.78;;;3.61;100.00
9460;BME280;4768;42.664;23.240;2022-12-07T00:18:40;-9513.22;;;3.63;100.00
9460;BME280;4768;42.664;23.240;2022-12-07T00:21:09;-9512.50;;;3.60;100.00
9460;BME280;4768;42.664;23.240;2022-12-07T00:23:37;-9511.25;;;3.56;100.00
9460;BME280;4768;42.664;23.240;2022-12-07T00:26:05;-9512.94;;;3.62;100.00
9460;BME280;4768;42.664;23.240;2022-12-07T00:28:33;-9512.38;;;3.60;100.00
9460;BME280;4768;42.664;23.240;2022-12-07T00:31:02;-9511.94;;;3.58;100.00
9460;BME280;4768;42.664;23.240;2022-12-07T00:33:29;-9513.06;;;3.62;100.00
9460;BME280;4768;42.664;23.240;2022-12-07T00:35:56;-9513.22;;;3.63;100.00
9460;BME280;4768;42.664;23.240;2022-12-07T00:38:23;-9513.91;;;3.65;100.00
9460;BME280;4768;42.664;23.240;2022-12-07T00:40:55;-9512.22;;;3.59;100.00
9460;BME280;4768;42.664;23.240;2022-12-07T00:43:22;-9511.38;;;3.56;100.00
9460;BME280;4768;42.664;23.240;2022-12-07T00:45:50;-9510.69;;;3.54;100.00
9460;BME280;4768;42.664;23.240;2022-12-07T00:48:17;-9510.53;;;3.53;100.00
9460;BME280;4768;42.664;23.240;2022-12-07T00:50:44;-9510.97;;;3.55;100.00
9460;BME280;4768;42.664;23.240;2022-12-07T00:53:11;-9510.09;;;3.52;100.00
9460;BME280;4768;42.664;23.240;2022-12-07T00:55:38;-9510.09;;;3.52;100.00
9460;BME280;4768;42.664;23.240;2022-12-07T00:58:05;-9510.25;;;3.52;100.00
9460;BME280;4768;42.664;23.240;2022-12-07T01:00:32;-9510.41;;;3.53;100.00
9460;BME280;4768;42.664;23.240;2022-12-07T01:03:01;-9510.97;;;3.55;100.00
9460;BME280;4768;42.664;23.240;2022-12-07T01:05:28;-9511.25;;;3.56;100.00
9460;BME280;4768;42.664;23.240;2022-12-07T01:07:55;-9511.53;;;3.57;100.00
9460;BME280;4768;42.664;23.240;2022-12-07T01:10:21;-9512.09;;;3.59;100.00
9460;BME280;4768;42.664;23.240;2022-12-07T01:12:48;-9512.09;;;3.59;100.00
9460;BME280;4768;42.664;23.240;2022-12-07T01:15:15;-9512.66;;;3.61;100.00
9460;BME280;4768;42.664;23.240;2022-12-07T01:17:42;-9512.38;;;3.60;100.00
9460;BME280;4768;42.664;23.240;2022-12-07T01:20:12;-9511.66;;;3.57;100.00
9460;BME280;4768;42.664;23.240;2022-12-07T01:22:39;-9511.66;;;3.57;100.00
9460;BME280;4768;42.664;23.240;2022-12-07T01:25:07;-9511.25;;;3.56;100.00
9460;BME280;4768;42.664;23.240;2022-12-07T01:27:35;-9511.09;;;3.55;100.00
9460;BME280;4768;42.664;23.240;2022-12-07T01:30:04;-9511.09;;;3.55;100.00
9460;BME280;4768;42.664;23.240;2022-12-07T01:32:32;-9510.97;;;3.55;100.00
9460;BME280;4768;42.664;23.240;2022-12-07T01:34:59;-9510.09;;;3.52;100.00
9460;BME280;4768;42.664;23.240;2022-12-07T01:37:27;-9508.56;;;3.46;100.00
9460;BME280;4768;42.664;23.240;2022-12-07T01:39:54;-9508.28;;;3.45;100.00
9460;BME280;4768;42.664;23.240;2022-12-07T01:42:20;-9508.84;;;3.47;100.00
9460;BME280;4768;42.664;23.240;2022-12-07T01:47:53;-9508.00;;;3.44;100.00
9460;BME280;4768;42.664;23.240;2022-12-07T01:50:24;-9508.00;;;3.44;100.00
9460;BME280;4768;42.664;23.240;2022-12-07T01:52:56;-9508.13;;;3.45;100.00
9460;BME280;4768;42.664;23.240;2022-12-07T01:55:25;-9508.13;;;3.45;100.00
9460;BME280;4768;42.664;23.240;2022-12-07T01:57:53;-9508.56;;;3.46;100.00
9460;BME280;4768;42.664;23.240;2022-12-07T02:00:20;-9509.41;;;3.49;100.00
9460;BME280;4768;42.664;23.240;2022-12-07T02:02:51;-9509.53;;;3.50;100.00
9460;BME280;4768;42.664;23.240;2022-12-07T02:05:20;-9507.44;;;3.42;100.00
9460;BME280;4768;42.664;23.240;2022-12-07T02:07:47;-9506.72;;;3.40;100.00
9460;BME280;4768;42.664;23.240;2022-12-07T02:10:19;-9507.16;;;3.41;100.00
9460;BME280;4768;42.664;23.240;2022-12-07T02:12:50;-9506.44;;;3.39;100.00
9460;BME280;4768;42.664;23.240;2022-12-07T02:15:19;-9505.59;;;3.36;100.00
9460;BME280;4768;42.664;23.240;2022-12-07T02:17:51;-9505.72;;;3.36;100.00
9460;BME280;4768;42.664;23.240;2022-12-07T02:20:27;-9505.88;;;3.37;100.00
9460;BME280;4768;42.664;23.240;2022-12-07T02:23:37;-9506.03;;;3.37;100.00
9460;BME280;4768;42.664;23.240;2022-12-07T02:26:28;-9506.03;;;3.37;100.00
9460;BME280;4768;42.664;23.240;2022-12-07T02:29:11;-9506.03;;;3.37;100.00
9460;BME280;4768;42.664;23.240;2022-12-07T02:31:43;-9505.88;;;3.37;100.00
9460;BME280;4768;42.664;23.240;2022-12-07T02:34:19;-9505.44;;;3.35;100.00
9460;BME280;4768;42.664;23.240;2022-12-07T02:36:53;-9503.91;;;3.30;100.00
9460;BME280;4768;42.664;23.240;2022-12-07T02:39:28;-9504.03;;;3.31;100.00
9460;BME280;4768;42.664;23.240;2022-12-07T02:42:01;-9503.06;;;3.27;100.00
9460;BME280;4768;42.664;23.240;2022-12-07T02:44:32;-9503.06;;;3.27;100.00
9460;BME280;4768;42.664;23.240;2022-12-07T02:47:02;-9502.63;;;3.26;100.00
9460;BME280;4768;42.664;23.240;2022-12-07T02:49:30;-9501.78;;;3.23;100.00
9460;BME280;4768;42.664;23.240;2022-12-07T02:51:57;-9502.06;;;3.24;100.00
9460;BME280;4768;42.664;23.240;2022-12-07T02:54:24;-9502.34;;;3.25;100.00
9460;BME280;4768;42.664;23.240;2022-12-07T02:56:55;-9500.94;;;3.20;100.00
9460;BME280;4768;42.664;23.240;2022-12-07T02:59:30;-9501.34;;;3.21;100.00
9460;BME280;4768;42.664;23.240;2022-12-07T03:02:09;-9501.06;;;3.20;100.00
9460;BME280;4768;42.664;23.240;2022-12-07T03:04:47;-9501.06;;;3.20;100.00
9460;BME280;4768;42.664;23.240;2022-12-07T03:07:26;-9502.22;;;3.24;100.00
9460;BME280;4768;42.664;23.240;2022-12-07T03:10:01;-9499.38;;;3.14;100.00
9460;BME280;4768;42.664;23.240;2022-12-07T03:12:33;-9499.25;;;3.14;100.00
9460;BME280;4768;42.664;23.240;2022-12-07T03:15:06;-9497.69;;;3.08;100.00
9460;BME280;4768;42.664;23.240;2022-12-07T03:17:38;-9496.00;;;3.02;100.00
9460;BME280;4768;42.664;23.240;2022-12-07T03:20:09;-9495.56;;;3.01;100.00
9460;BME280;4768;42.664;23.240;2022-12-07T03:22:38;-9495.00;;;2.99;100.00
9460;BME280;4768;42.664;23.240;2022-12-07T03:25:11;-9495.44;;;3.00;100.00
9460;BME280;4768;42.664;23.240;2022-12-07T03:27:44;-9494.88;;;2.98;100.00
9460;BME280;4768;42.664;23.240;2022-12-07T03:30:16;-9493.72;;;2.94;100.00
9460;BME280;4768;42.664;23.240;2022-12-07T03:32:48;-9495.84;;;3.02;100.00
9460;BME280;4768;42.664;23.240;2022-12-07T03:35:18;-9495.44;;;3.00;100.00
9460;BME280;4768;42.664;23.240;2022-12-07T03:37:51;-9495.00;;;2.99;100.00
9460;BME280;4768;42.664;23.240;2022-12-07T03:40:23;-9496.69;;;3.05;100.00
9460;BME280;4768;42.664;23.240;2022-12-07T03:42:52;-9497.81;;;3.09;100.00
9460;BME280;4768;42.664;23.240;2022-12-07T03:45:24;-9498.25;;;3.10;100.00
9460;BME280;4768;42.664;23.240;2022-12-07T03:48:01;-9499.25;;;3.14;100.00
9460;BME280;4768;42.664;23.240;2022-12-07T03:50:31;-9499.09;;;3.13;100.00
9460;BME280;4768;42.664;23.240;2022-12-07T03:53:05;-9498.81;;;3.12;100.00
9460;BME280;4768;42.664;23.240;2022-12-07T03:55:37;-9498.38;;;3.11;100.00
9460;BME280;4768;42.664;23.240;2022-12-07T03:58:09;-9498.97;;;3.13;100.00
9460;BME280;4768;42.664;23.240;2022-12-07T04:00:37;-9499.53;;;3.15;100.00
9460;BME280;4768;42.664;23.240;2022-12-07T04:03:06;-9499.25;;;3.14;100.00
9460;BME280;4768;42.664;23.240;2022-12-07T04:05:32;-9497.53;;;3.08;100.00
9460;BME280;4768;42.664;23.240;2022-12-07T04:07:59;-9496.13;;;3.03;100.00
9460;BME280;4768;42.664;23.240;2022-12-07T04:10:26;-9495.44;;;3.00;100.00
9460;BME280;4768;42.664;23.240;2022-12-07T04:12:53;-9495.84;;;3.02;100.00
9460;BME280;4768;42.664;23.240;2022-12-07T04:15:19;-9496.28;;;3.03;100.00
9460;BME280;4768;42.664;23.240;2022-12-07T04:17:46;-9495.84;;;3.02;100.00
9460;BME280;4768;42.664;23.240;2022-12-07T04:20:14;-9495.72;;;3.01;100.00
9460;BME280;4768;42.664;23.240;2022-12-07T04:22:41;-9497.69;;;3.08;100.00
9460;BME280;4768;42.664;23.240;2022-12-07T04:25:08;-9496.41;;;3.04;100.00
9460;BME280;4768;42.664;23.240;2022-12-07T04:27:35;-9496.41;;;3.04;100.00
9460;BME280;4768;42.664;23.240;2022-12-07T04:30:02;-9496.28;;;3.03;100.00
9460;BME280;4768;42.664;23.240;2022-12-07T04:32:29;-9495.28;;;3.00;100.00
9460;BME280;4768;42.664;23.240;2022-12-07T04:34:56;-9495.00;;;2.99;100.00
9460;BME280;4768;42.664;23.240;2022-12-07T04:37:24;-9495.44;;;3.00;100.00
9460;BME280;4768;42.664;23.240;2022-12-07T04:39:50;-9495.28;;;3.00;100.00
9460;BME280;4768;42.664;23.240;2022-12-07T04:42:17;-9494.88;;;2.98;100.00
9460;BME280;4768;42.664;23.240;2022-12-07T04:44:44;-9495.28;;;3.00;100.00
9460;BME280;4768;42.664;23.240;2022-12-07T04:47:11;-9494.72;;;2.98;100.00
9460;BME280;4768;42.664;23.240;2022-12-07T04:49:37;-9493.88;;;2.95;100.00
9460;BME280;4768;42.664;23.240;2022-12-07T04:52:04;-9491.91;;;2.88;100.00
9460;BME280;4768;42.664;23.240;2022-12-07T04:54:32;-9492.31;;;2.89;100.00
9460;BME280;4768;42.664;23.240;2022-12-07T04:56:59;-9492.59;;;2.90;100.00
9460;BME280;4768;42.664;23.240;2022-12-07T04:59:26;-9494.31;;;2.96;100.00
9460;BME280;4768;42.664;23.240;2022-12-07T05:01:53;-9494.72;;;2.98;100.00
9460;BME280;4768;42.664;23.240;2022-12-07T05:04:19;-9496.00;;;3.02;100.00
9460;BME280;4768;42.664;23.240;2022-12-07T05:06:46;-9495.72;;;3.01;100.00
9460;BME280;4768;42.664;23.240;2022-12-07T05:09:13;-9496.84;;;3.05;100.00
9460;BME280;4768;42.664;23.240;2022-12-07T05:11:41;-9497.13;;;3.06;100.00
9460;BME280;4768;42.664;23.240;2022-12-07T05:14:11;-9497.25;;;3.07;100.00
9460;BME280;4768;42.664;23.240;2022-12-07T05:16:39;-9497.13;;;3.06;100.00
9460;BME280;4768;42.664;23.240;2022-12-07T05:19:07;-9496.97;;;3.06;100.00
9460;BME280;4768;42.664;23.240;2022-12-07T05:21:34;-9497.69;;;3.08;100.00
9460;BME280;4768;42.664;23.240;2022-12-07T05:24:01;-9497.41;;;3.07;100.00
9460;BME280;4768;42.664;23.240;2022-12-07T05:26:28;-9497.53;;;3.08;100.00
9460;BME280;4768;42.664;23.240;2022-12-07T05:28:56;-9499.38;;;3.14;100.00
9460;BME280;4768;42.664;23.240;2022-12-07T05:31:25;-9498.81;;;3.12;100.00
9460;BME280;4768;42.664;23.240;2022-12-07T05:33:52;-9499.25;;;3.14;100.00
9460;BME280;4768;42.664;23.240;2022-12-07T05:36:19;-9498.81;;;3.12;100.00
9460;BME280;4768;42.664;23.240;2022-12-07T05:38:46;-9499.94;;;3.16;100.00
9460;BME280;4768;42.664;23.240;2022-12-07T05:41:17;-9499.09;;;3.13;100.00
9460;BME280;4768;42.664;23.240;2022-12-07T05:44:03;-9500.22;;;3.17;100.00
9460;BME280;4768;42.664;23.240;2022-12-07T05:46:30;-9498.66;;;3.12;100.00
9460;BME280;4768;42.664;23.240;2022-12-07T05:48:57;-9498.66;;;3.12;100.00
9460;BME280;4768;42.664;23.240;2022-12-07T05:51:25;-9498.97;;;3.13;100.00
9460;BME280;4768;42.664;23.240;2022-12-07T05:53:52;-9498.53;;;3.11;100.00
9460;BME280;4768;42.664;23.240;2022-12-07T05:56:18;-9498.66;;;3.12;100.00
9460;BME280;4768;42.664;23.240;2022-12-07T05:58:45;-9499.09;;;3.13;100.00
9460;BME280;4768;42.664;23.240;2022-12-07T06:01:31;-9498.25;;;3.10;100.00
9460;BME280;4768;42.664;23.240;2022-12-07T06:03:57;-9498.66;;;3.12;100.00
9460;BME280;4768;42.664;23.240;2022-12-07T06:06:24;-9498.66;;;3.12;100.00
9460;BME280;4768;42.664;23.240;2022-12-07T06:08:51;-9499.25;;;3.14;100.00
9460;BME280;4768;42.664;23.240;2022-12-07T06:11:18;-9499.94;;;3.16;100.00
9460;BME280;4768;42.664;23.240;2022-12-07T06:14:02;-9500.94;;;3.20;100.00
9460;BME280;4768;42.664;23.240;2022-12-07T06:16:28;-9501.50;;;3.22;100.00
9460;BME280;4768;42.664;23.240;2022-12-07T06:18:56;-9502.22;;;3.24;100.00
9460;BME280;4768;42.664;23.240;2022-12-07T06:21:23;-9502.78;;;3.26;100.00
9460;BME280;4768;42.664;23.240;2022-12-07T06:23:51;-9503.34;;;3.28;100.00
9460;BME280;4768;42.664;23.240;2022-12-07T06:26:17;-9505.16;;;3.35;100.00
9460;BME280;4768;42.664;23.240;2022-12-07T06:28:44;-9506.59;;;3.39;100.00
9460;BME280;4768;42.664;23.240;2022-12-07T06:31:11;-9505.59;;;3.36;100.00
9460;BME280;4768;42.664;23.240;2022-12-07T06:33:37;-9505.72;;;3.36;100.00
9460;BME280;4768;42.664;23.240;2022-12-07T06:36:06;-9506.44;;;3.39;100.00
9460;BME280;4768;42.664;23.240;2022-12-07T06:38:33;-9506.44;;;3.39;100.00
9460;BME280;4768;42.664;23.240;2022-12-07T06:41:00;-9506.16;;;3.38;100.00
9460;BME280;4768;42.664;23.240;2022-12-07T06:43:27;-9506.72;;;3.40;100.00
9460;BME280;4768;42.664;23.240;2022-12-07T06:45:53;-9506.88;;;3.40;100.00
9460;BME280;4768;42.664;23.240;2022-12-07T06:48:20;-9507.72;;;3.43;100.00
9460;BME280;4768;42.664;23.240;2022-12-07T06:50:47;-9508.69;;;3.47;100.00
9460;BME280;4768;42.664;23.240;2022-12-07T06:53:16;-9508.00;;;3.44;100.00
9460;BME280;4768;42.664;23.240;2022-12-07T06:55:42;-9507.72;;;3.43;100.00
9460;BME280;4768;42.664;23.240;2022-12-07T06:58:09;-9509.13;;;3.48;100.00
9460;BME280;4768;42.664;23.240;2022-12-07T07:00:36;-9510.69;;;3.54;100.00
9460;BME280;4768;42.664;23.240;2022-12-07T07:03:03;-9510.81;;;3.54;100.00
9460;BME280;4768;42.664;23.240;2022-12-07T07:05:29;-9511.53;;;3.57;100.00
9460;BME280;4768;42.664;23.240;2022-12-07T07:07:56;-9510.41;;;3.53;100.00
9460;BME280;4768;42.664;23.240;2022-12-07T07:10:24;-9507.84;;;3.44;100.00
9460;BME280;4768;42.664;23.240;2022-12-07T07:12:51;-9508.56;;;3.46;100.00
9460;BME280;4768;42.664;23.240;2022-12-07T07:15:18;-9506.28;;;3.38;100.00
9460;BME280;4768;42.664;23.240;2022-12-07T07:17:44;-9507.56;;;3.43;100.00
9460;BME280;4768;42.664;23.240;2022-12-07T07:20:12;-9506.28;;;3.38;100.00
9460;BME280;4768;42.664;23.240;2022-12-07T07:22:39;-9507.44;;;3.42;100.00
9460;BME280;4768;42.664;23.240;2022-12-07T07:25:06;-9506.59;;;3.39;100.00
9460;BME280;4768;42.664;23.240;2022-12-07T07:27:34;-9508.56;;;3.46;100.00
9460;BME280;4768;42.664;23.240;2022-12-07T07:30:01;-9507.84;;;3.44;100.00
9460;BME280;4768;42.664;23.240;2022-12-07T07:32:28;-9510.25;;;3.52;100.00
9460;BME280;4768;42.664;23.240;2022-12-07T07:34:55;-9512.50;;;3.60;100.00
9460;BME280;4768;42.664;23.240;2022-12-07T07:37:22;-9510.97;;;3.55;100.00
9460;BME280;4768;42.664;23.240;2022-12-07T07:39:48;-9514.91;;;3.69;100.00
9460;BME280;4768;42.664;23.240;2022-12-07T07:42:15;-9510.53;;;3.53;100.00
9460;BME280;4768;42.664;23.240;2022-12-07T07:44:43;-9509.97;;;3.51;100.00
9460;BME280;4768;42.664;23.240;2022-12-07T07:47:10;-9510.97;;;3.55;100.00
9460;BME280;4768;42.664;23.240;2022-12-07T07:49:37;-9512.22;;;3.59;100.00
9460;BME280;4768;42.664;23.240;2022-12-07T07:52:05;-9515.63;;;3.71;100.00
9460;BME280;4768;42.664;23.240;2022-12-07T07:54:32;-9516.47;;;3.74;100.00
9460;BME280;4768;42.664;23.240;2022-12-07T07:56:59;-9517.47;;;3.78;100.00
9460;BME280;4768;42.664;23.240;2022-12-07T07:59:25;-9517.59;;;3.78;100.00
9460;BME280;4768;42.664;23.240;2022-12-07T08:01:53;-9516.47;;;3.74;100.00
9460;BME280;4768;42.664;23.240;2022-12-07T08:04:20;-9516.75;;;3.75;100.00
9460;BME280;4768;42.664;23.240;2022-12-07T08:06:47;-9517.47;;;3.78;100.00
9460;BME280;4768;42.664;23.240;2022-12-07T08:09:13;-9518.72;;;3.82;100.00
9460;BME280;4768;42.664;23.240;2022-12-07T08:11:40;-9517.88;;;3.79;100.00
9460;BME280;4768;42.664;23.240;2022-12-07T08:14:07;-9516.19;;;3.73;100.00
9460;BME280;4768;42.664;23.240;2022-12-07T08:16:33;-9515.19;;;3.70;100.00
9460;BME280;4768;42.664;23.240;2022-12-07T08:19:04;-9517.03;;;3.76;100.00
9460;BME280;4768;42.664;23.240;2022-12-07T08:21:30;-9517.88;;;3.79;100.00
9460;BME280;4768;42.664;23.240;2022-12-07T08:23:57;-9518.44;;;3.81;100.00
9460;BME280;4768;42.664;23.240;2022-12-07T08:26:24;-9518.03;;;3.80;100.00
9460;BME280;4768;42.664;23.240;2022-12-07T08:28:52;-9517.03;;;3.76;100.00
9460;BME280;4768;42.664;23.240;2022-12-07T08:31:19;-9517.59;;;3.78;100.00
9460;BME280;4768;42.664;23.240;2022-12-07T08:33:47;-9519.72;;;3.85;100.00
9460;BME280;4768;42.664;23.240;2022-12-07T08:36:16;-9521.69;;;3.92;100.00
9460;BME280;4768;42.664;23.240;2022-12-07T08:38:43;-9523.09;;;3.97;100.00
9460;BME280;4768;42.664;23.240;2022-12-07T08:41:10;-9523.25;;;3.98;100.00
9460;BME280;4768;42.664;23.240;2022-12-07T08:43:36;-9523.38;;;3.98;100.00
9460;BME280;4768;42.664;23.240;2022-12-07T08:46:09;-9523.94;;;4.00;100.00
9460;BME280;4768;42.664;23.240;2022-12-07T08:48:41;-9523.25;;;3.98;100.00
9460;BME280;4768;42.664;23.240;2022-12-07T08:51:10;-9527.63;;;4.13;100.00
9460;BME280;4768;42.664;23.240;2022-12-07T08:53:39;-9531.00;;;4.25;100.00
9460;BME280;4768;42.664;23.240;2022-12-07T08:56:07;-9532.84;;;4.31;100.00
9460;BME280;4768;42.664;23.240;2022-12-07T08:58:34;-9535.69;;;4.41;100.00
9460;BME280;4768;42.664;23.240;2022-12-07T09:01:02;-9536.81;;;4.45;100.00
9460;BME280;4768;42.664;23.240;2022-12-07T09:03:30;-9534.41;;;4.37;100.00
9460;BME280;4768;42.664;23.240;2022-12-07T09:05:57;-9540.19;;;4.57;100.00
9460;BME280;4768;42.664;23.240;2022-12-07T09:08:28;-9544.72;;;4.73;100.00
9460;BME280;4768;42.664;23.240;2022-12-07T09:10:57;-9538.22;;;4.50;100.00
9460;BME280;4768;42.664;23.240;2022-12-07T09:13:24;-9547.13;;;4.81;100.00
9460;BME280;4768;42.664;23.240;2022-12-07T09:15:51;-9555.31;;;5.10;100.00
9460;BME280;4768;42.664;23.240;2022-12-07T09:18:17;-9552.34;;;5.00;100.00
9460;BME280;4768;42.664;23.240;2022-12-07T09:20:44;-9551.94;;;4.98;100.00
9460;BME280;4768;42.664;23.240;2022-12-07T09:23:11;-9550.66;;;4.94;100.00
9460;BME280;4768;42.664;23.240;2022-12-07T09:25:38;-9562.81;;;5.36;100.00
9460;BME280;4768;42.664;23.240;2022-12-07T09:28:06;-9561.81;;;5.33;100.00
9460;BME280;4768;42.664;23.240;2022-12-07T09:30:33;-9555.31;;;5.10;100.00
9460;BME280;4768;42.664;23.240;2022-12-07T09:32:59;-9561.41;;;5.31;100.00
9460;BME280;4768;42.664;23.240;2022-12-07T09:35:26;-9557.88;;;5.19;100.00
9460;BME280;4768;42.664;23.240;2022-12-07T09:37:53;-9559.16;;;5.24;100.00
9460;BME280;4768;42.664;23.240;2022-12-07T09:40:22;-9564.09;;;5.41;100.00
9460;BME280;4768;42.664;23.240;2022-12-07T09:42:51;-9564.66;;;5.43;100.00
9460;BME280;4768;42.664;23.240;2022-12-07T09:45:23;-9559.28;;;5.24;100.00
9460;BME280;4768;42.664;23.240;2022-12-07T09:47:50;-9557.59;;;5.18;100.00
9460;BME280;4768;42.664;23.240;2022-12-07T09:50:20;-9557.72;;;5.19;100.00
9460;BME280;4768;42.664;23.240;2022-12-07T09:52:49;-9563.25;;;5.38;100.00
9460;BME280;4768;42.664;23.240;2022-12-07T09:55:20;-9560.00;;;5.27;100.00
9460;BME280;4768;42.664;23.240;2022-12-07T09:57:50;-9560.41;;;5.28;100.00
9460;BME280;4768;42.664;23.240;2022-12-07T10:00:21;-9563.81;;;5.40;100.00
9460;BME280;4768;42.664;23.240;2022-12-07T10:02:53;-9569.59;;;5.60;100.00
9460;BME280;4768;42.664;23.240;2022-12-07T10:05:23;-9572.16;;;5.69;100.00
9460;BME280;4768;42.664;23.240;2022-12-07T10:07:51;-9577.69;;;5.88;100.00
9460;BME280;4768;42.664;23.240;2022-12-07T10:10:23;-9578.66;;;5.92;100.00
9460;BME280;4768;42.664;23.240;2022-12-07T10:12:53;-9574.56;;;5.78;100.00
9460;BME280;4768;42.664;23.240;2022-12-07T10:15:22;-9574.41;;;5.77;100.00
9460;BME280;4768;42.664;23.240;2022-12-07T10:17:51;-9576.81;;;5.85;100.00
9460;BME280;4768;42.664;23.240;2022-12-07T10:20:21;-9581.78;;;6.03;100.00
9460;BME280;4768;42.664;23.240;2022-12-07T10:22:57;-9580.66;;;5.99;100.00
9460;BME280;4768;42.664;23.240;2022-12-07T10:25:27;-9580.94;;;6.00;100.00
9460;BME280;4768;42.664;23.240;2022-12-07T10:28:02;-9586.31;;;6.19;100.00
9460;BME280;4768;42.664;23.240;2022-12-07T10:30:31;-9580.78;;;5.99;100.00
9460;BME280;4768;42.664;23.240;2022-12-07T10:32:59;-9583.34;;;6.08;100.00
9460;BME280;4768;42.664;23.240;2022-12-07T10:35:27;-9586.88;;;6.21;100.00
9460;BME280;4768;42.664;23.240;2022-12-07T10:37:55;-9589.28;;;6.29;100.00
9460;BME280;4768;42.664;23.240;2022-12-07T10:40:31;-9584.59;;;6.13;100.00
9460;BME280;4768;42.664;23.240;2022-12-07T10:43:15;-9592.25;;;6.39;100.00
9460;BME280;4768;42.664;23.240;2022-12-07T10:48:50;-9601.16;;;6.71;100.00
9460;BME280;4768;42.664;23.240;2022-12-07T10:51:27;-9602.00;;;6.73;100.00
9460;BME280;4768;42.664;23.240;2022-12-07T10:54:06;-9600.16;;;6.67;100.00
9460;BME280;4768;42.664;23.240;2022-12-07T10:56:58;-9599.91;;;6.66;100.00
9460;BME280;4768;42.664;23.240;2022-12-07T10:59:55;-9601.59;;;6.72;100.00
9460;BME280;4768;42.664;23.240;2022-12-07T11:02:41;-9603.84;;;6.80;100.00
9460;BME280;4768;42.664;23.240;2022-12-07T11:05:16;-9604.41;;;6.82;100.00
9460;BME280;4768;42.664;23.240;2022-12-07T11:07:54;-9601.88;;;6.73;100.00
9460;BME280;4768;42.664;23.240;2022-12-07T11:10:26;-9603.44;;;6.78;100.00
9460;BME280;4768;42.664;23.240;2022-12-07T11:13:09;-9607.69;;;6.93;100.00
9460;BME280;4768;42.664;23.240;2022-12-07T11:15:53;-9612.91;;;7.12;100.00
9460;BME280;4768;42.664;23.240;2022-12-07T11:18:27;-9616.03;;;7.22;100.00
9460;BME280;4768;42.664;23.240;2022-12-07T11:21:00;-9613.19;;;7.13;100.00
9460;BME280;4768;42.664;23.240;2022-12-07T11:23:41;-9620.69;;;7.39;100.00
9460;BME280;4768;42.664;23.240;2022-12-07T11:26:20;-9630.75;;;7.74;100.00
9460;BME280;4768;42.664;23.240;2022-12-07T11:29:10;-9633.88;;;7.85;100.00
9460;BME280;4768;42.664;23.240;2022-12-07T11:31:48;-9627.22;;;7.62;100.00
9460;BME280;4768;42.664;23.240;2022-12-07T11:34:25;-9627.94;;;7.64;100.00
9460;BME280;4768;42.664;23.240;2022-12-07T11:36:56;-9636.56;;;7.94;100.00
9460;BME280;4768;42.664;23.240;2022-12-07T11:39:26;-9642.66;;;8.16;100.00
9460;BME280;4768;42.664;23.240;2022-12-07T11:42:00;-9643.22;;;8.18;100.00
9460;BME280;4768;42.664;23.240;2022-12-07T11:44:34;-9637.56;;;7.98;100.00
9460;BME280;4768;42.664;23.240;2022-12-07T11:47:07;-9634.03;;;7.85;100.00
9460;BME280;4768;42.664;23.240;2022-12-07T11:49:42;-9631.59;;;7.77;100.00
9460;BME280;4768;42.664;23.240;2022-12-07T11:52:21;-9631.47;;;7.76;100.00
9460;BME280;4768;42.664;23.240;2022-12-07T11:54:51;-9634.16;;;7.86;100.00
9460;BME280;4768;42.664;23.240;2022-12-07T11:57:25;-9634.16;;;7.86;100.00
9460;BME280;4768;42.664;23.240;2022-12-07T11:59:59;-9635.16;;;7.89;100.00
9460;BME280;4768;42.664;23.240;2022-12-07T12:02:32;-9632.59;;;7.80;100.00
9460;BME280;4768;42.664;23.240;2022-12-07T12:05:15;-9634.59;;;7.87;100.00
9460;BME280;4768;42.664;23.240;2022-12-07T12:07:44;-9637.28;;;7.97;100.00
9460;BME280;4768;42.664;23.240;2022-12-07T12:10:19;-9642.53;;;8.15;100.00
9460;BME280;4768;42.664;23.240;2022-12-07T12:13:09;-9642.81;;;8.16;100.00
9460;BME280;4768;42.664;23.240;2022-12-07T12:15:51;-9649.31;;;8.39;100.00
9460;BME280;4768;42.664;23.240;2022-12-07T12:18:46;-9650.19;;;8.42;100.00
9460;BME280;4768;42.664;23.240;2022-12-07T12:21:19;-9644.50;;;8.22;100.00
9460;BME280;4768;42.664;23.240;2022-12-07T12:23:55;-9644.94;;;8.23;100.00
9460;BME280;4768;42.664;23.240;2022-12-07T12:26:25;-9645.34;;;8.25;100.00
9460;BME280;4768;42.664;23.240;2022-12-07T12:28:56;-9645.06;;;8.24;100.00
9460;BME280;4768;42.664;23.240;2022-12-07T12:31:36;-9649.19;;;8.38;100.00
9460;BME280;4768;42.664;23.240;2022-12-07T12:34:31;-9651.75;;;8.47;100.00
9460;BME280;4768;42.664;23.240;2022-12-07T12:36:59;-9654.00;;;8.55;100.00
9460;BME280;4768;42.664;23.240;2022-12-07T12:39:26;-9659.53;;;8.74;100.00
9460;BME280;4768;42.664;23.240;2022-12-07T12:41:57;-9662.22;;;8.84;100.00
9460;BME280;4768;42.664;23.240;2022-12-07T12:47:43;-9660.81;;;8.79;100.00
9460;BME280;4768;42.664;23.240;2022-12-07T12:50:20;-9659.38;;;8.74;100.00
9460;BME280;4768;42.664;23.240;2022-12-07T12:52:53;-9659.09;;;8.73;100.00
9460;BME280;4768;42.664;23.240;2022-12-07T12:55:50;-9663.22;;;8.87;100.00
9460;BME280;4768;42.664;23.240;2022-12-07T12:58:29;-9662.22;;;8.84;100.00
9460;BME280;4768;42.664;23.240;2022-12-07T13:04:39;-9662.09;;;8.83;100.00
9460;BME280;4768;42.664;23.240;2022-12-07T13:07:12;-9664.63;;;8.92;100.00
9460;BME280;4768;42.664;23.240;2022-12-07T13:09:44;-9669.03;;;9.08;100.00
9460;BME280;4768;42.664;23.240;2022-12-07T13:12:14;-9664.78;;;8.93;100.00
9460;BME280;4768;42.664;23.240;2022-12-07T13:17:55;-9669.16;;;9.08;100.00
9460;BME280;4768;42.664;23.240;2022-12-07T13:20:46;-9669.88;;;9.11;100.00
9460;BME280;4768;42.664;23.240;2022-12-07T13:23:18;-9666.34;;;8.98;100.00
9460;BME280;4768;42.664;23.240;2022-12-07T13:25:51;-9666.19;;;8.98;100.00
9460;BME280;4768;42.664;23.240;2022-12-07T13:28:19;-9665.19;;;8.94;100.00
9460;BME280;4768;42.664;23.240;2022-12-07T13:30:58;-9664.34;;;8.91;100.00
9460;BME280;4768;42.664;23.240;2022-12-07T13:33:27;-9663.50;;;8.88;100.00
9460;BME280;4768;42.664;23.240;2022-12-07T13:35:55;-9662.50;;;8.85;100.00
9460;BME280;4768;42.664;23.240;2022-12-07T13:38:27;-9659.81;;;8.75;100.00
9460;BME280;4768;42.664;23.240;2022-12-07T13:41:12;-9662.50;;;8.85;100.00
9460;BME280;4768;42.664;23.240;2022-12-07T13:43:52;-9659.53;;;8.74;100.00